sensor_id;sensor_type;location;lat;lon;timestamp;temperature;humidity
22436;DHT22;11385;50.822;4.324;2023-02-28T00:01:26;3.50;99.90
22436;DHT22;11385;50.822;4.324;2023-02-28T00:03:53;3.60;99.90
22436;DHT22;11385;50.822;4.324;2023-02-28T00:06:20;3.60;99.90
22436;DHT22;11385;50.822;4.324;2023-02-28T00:08:48;3.60;99.90
22436;DHT22;11385;50.822;4.324;2023-02-28T00:11:15;3.60;99.90
22436;DHT22;11385;50.822;4.324;2023-02-28T00:13:45;3.50;99.90
22436;DHT22;11385;50.822;4.324;2023-02-28T00:16:16;3.40;99.90
22436;DHT22;11385;50.822;4.324;2023-02-28T00:18:44;3.40;99.90
22436;DHT22;11385;50.822;4.324;2023-02-28T00:21:11;3.30;99.90
22436;DHT22;11385;50.822;4.324;2023-02-28T00:23:37;3.30;99.90
22436;DHT22;11385;50.822;4.324;2023-02-28T00:26:04;3.20;99.90
22436;DHT22;11385;50.822;4.324;2023-02-28T00:28:31;3.20;99.90
22436;DHT22;11385;50.822;4.324;2023-02-28T00:30:58;3.20;99.90
22436;DHT22;11385;50.822;4.324;2023-02-28T00:33:26;3.10;99.90
22436;DHT22;11385;50.822;4.324;2023-02-28T00:36:01;3.10;99.90
22436;DHT22;11385;50.822;4.324;2023-02-28T00:38:29;3.30;99.90
22436;DHT22;11385;50.822;4.324;2023-02-28T00:40:56;3.30;99.90
22436;DHT22;11385;50.822;4.324;2023-02-28T00:43:24;3.10;99.90
22436;DHT22;11385;50.822;4.324;2023-02-28T00:45:51;3.00;99.90
22436;DHT22;11385;50.822;4.324;2023-02-28T00:48:17;3.00;99.90
22436;DHT22;11385;50.822;4.324;2023-02-28T00:50:44;3.00;99.90
22436;DHT22;11385;50.822;4.324;2023-02-28T00:53:13;2.90;99.90
22436;DHT22;11385;50.822;4.324;2023-02-28T00:55:39;3.00;99.90
22436;DHT22;11385;50.822;4.324;2023-02-28T00:58:06;3.20;99.90
22436;DHT22;11385;50.822;4.324;2023-02-28T01:00:33;3.30;99.90
22436;DHT22;11385;50.822;4.324;2023-02-28T01:02:59;3.10;99.90
22436;DHT22;11385;50.822;4.324;2023-02-28T01:05:26;3.00;99.90
22436;DHT22;11385;50.822;4.324;2023-02-28T01:07:53;3.00;99.90
22436;DHT22;11385;50.822;4.324;2023-02-28T01:10:19;3.00;99.90
22436;DHT22;11385;50.822;4.324;2023-02-28T01:12:46;3.00;99.90
22436;DHT22;11385;50.822;4.324;2023-02-28T01:15:13;3.10;99.90
22436;DHT22;11385;50.822;4.324;2023-02-28T01:17:40;3.10;99.90
22436;DHT22;11385;50.822;4.324;2023-02-28T01:20:07;3.00;99.90
22436;DHT22;11385;50.822;4.324;2023-02-28T01:22:34;3.00;99.90
22436;DHT22;11385;50.822;4.324;2023-02-28T01:25:01;2.90;99.90
22436;DHT22;11385;50.822;4.324;2023-02-28T01:27:28;2.80;99.90
22436;DHT22;11385;50.822;4.324;2023-02-28T01:29:54;2.90;99.90
22436;DHT22;11385;50.822;4.324;2023-02-28T01:32:21;2.90;99.90
22436;DHT22;11385;50.822;4.324;2023-02-28T01:34:48;3.00;99.90
22436;DHT22;11385;50.822;4.324;2023-02-28T01:37:14;3.00;99.90
22436;DHT22;11385;50.822;4.324;2023-02-28T01:39:41;2.80;99.90
22436;DHT22;11385;50.822;4.324;2023-02-28T01:42:09;2.90;99.90
22436;DHT22;11385;50.822;4.324;2023-02-28T01:47:15;2.80;99.90
22436;DHT22;11385;50.822;4.324;2023-02-28T01:49:41;2.80;99.90
22436;DHT22;11385;50.822;4.324;2023-02-28T01:52:11;2.80;99.90
22436;DHT22;11385;50.822;4.324;2023-02-28T01:54:44;2.70;99.90
22436;DHT22;11385;50.822;4.324;2023-02-28T01:57:14;2.70;99.90
22436;DHT22;11385;50.822;4.324;2023-02-28T01:59:46;2.80;99.90
22436;DHT22;11385;50.822;4.324;2023-02-28T02:02:13;2.70;99.90
22436;DHT22;11385;50.822;4.324;2023-02-28T02:07:15;2.70;99.90
22436;DHT22;11385;50.822;4.324;2023-02-28T02:09:42;2.80;99.90
22436;DHT22;11385;50.822;4.324;2023-02-28T02:12:18;2.70;99.90
22436;DHT22;11385;50.822;4.324;2023-02-28T02:14:53;2.50;99.90
22436;DHT22;11385;50.822;4.324;2023-02-28T02:17:26;2.60;99.90
22436;DHT22;11385;50.822;4.324;2023-02-28T02:20:15;2.70;99.90
22436;DHT22;11385;50.822;4.324;2023-02-28T02:22:45;2.70;99.90
22436;DHT22;11385;50.822;4.324;2023-02-28T02:25:12;2.70;99.90
22436;DHT22;11385;50.822;4.324;2023-02-28T02:28:11;2.50;99.90
22436;DHT22;11385;50.822;4.324;2023-02-28T02:30:59;2.50;99.90
22436;DHT22;11385;50.822;4.324;2023-02-28T02:38:47;2.40;99.90
22436;DHT22;11385;50.822;4.324;2023-02-28T02:41:18;2.40;99.90
22436;DHT22;11385;50.822;4.324;2023-02-28T02:43:52;2.30;99.90
22436;DHT22;11385;50.822;4.324;2023-02-28T02:46:27;2.30;99.90
22436;DHT22;11385;50.822;4.324;2023-02-28T02:48:54;2.40;99.90
22436;DHT22;11385;50.822;4.324;2023-02-28T02:51:24;2.30;99.90
22436;DHT22;11385;50.822;4.324;2023-02-28T02:54:08;2.30;99.90
22436;DHT22;11385;50.822;4.324;2023-02-28T02:56:36;2.40;99.90
22436;DHT22;11385;50.822;4.324;2023-02-28T02:59:07;2.30;99.90
22436;DHT22;11385;50.822;4.324;2023-02-28T03:01:36;2.30;99.90
22436;DHT22;11385;50.822;4.324;2023-02-28T03:04:11;2.20;99.90
22436;DHT22;11385;50.822;4.324;2023-02-28T03:06:37;2.30;99.90
22436;DHT22;11385;50.822;4.324;2023-02-28T03:09:04;2.30;99.90
22436;DHT22;11385;50.822;4.324;2023-02-28T03:11:31;2.30;99.90
22436;DHT22;11385;50.822;4.324;2023-02-28T03:14:25;2.30;99.90
22436;DHT22;11385;50.822;4.324;2023-02-28T03:17:08;2.20;99.90
22436;DHT22;11385;50.822;4.324;2023-02-28T03:19:39;2.20;99.90
22436;DHT22;11385;50.822;4.324;2023-02-28T03:22:24;2.30;99.90
22436;DHT22;11385;50.822;4.324;2023-02-28T03:24:55;2.30;99.90
22436;DHT22;11385;50.822;4.324;2023-02-28T03:27:29;2.40;99.90
22436;DHT22;11385;50.822;4.324;2023-02-28T03:30:05;2.40;99.90
22436;DHT22;11385;50.822;4.324;2023-02-28T03:32:36;2.20;99.90
22436;DHT22;11385;50.822;4.324;2023-02-28T03:35:26;2.20;99.90
22436;DHT22;11385;50.822;4.324;2023-02-28T03:37:58;2.10;99.90
22436;DHT22;11385;50.822;4.324;2023-02-28T03:40:27;2.00;99.90
22436;DHT22;11385;50.822;4.324;2023-02-28T03:42:59;2.20;99.90
22436;DHT22;11385;50.822;4.324;2023-02-28T03:45:28;2.20;99.90
22436;DHT22;11385;50.822;4.324;2023-02-28T03:48:05;2.20;99.90
22436;DHT22;11385;50.822;4.324;2023-02-28T03:50:40;2.10;99.90
22436;DHT22;11385;50.822;4.324;2023-02-28T03:53:13;2.20;99.90
22436;DHT22;11385;50.822;4.324;2023-02-28T03:55:45;2.20;99.90
22436;DHT22;11385;50.822;4.324;2023-02-28T03:58:17;2.10;99.90
22436;DHT22;11385;50.822;4.324;2023-02-28T04:00:47;1.90;99.90
22436;DHT22;11385;50.822;4.324;2023-02-28T04:03:15;2.00;99.90
22436;DHT22;11385;50.822;4.324;2023-02-28T04:05:51;2.10;99.90
22436;DHT22;11385;50.822;4.324;2023-02-28T04:08:19;2.10;99.90
22436;DHT22;11385;50.822;4.324;2023-02-28T04:10:50;2.20;99.90
22436;DHT22;11385;50.822;4.324;2023-02-28T04:13:16;2.10;99.90
22436;DHT22;11385;50.822;4.324;2023-02-28T04:15:43;2.00;99.90
22436;DHT22;11385;50.822;4.324;2023-02-28T04:18:10;2.10;99.90
22436;DHT22;11385;50.822;4.324;2023-02-28T04:20:36;2.10;99.90
22436;DHT22;11385;50.822;4.324;2023-02-28T04:23:03;2.00;99.90
22436;DHT22;11385;50.822;4.324;2023-02-28T04:25:29;1.90;99.90
22436;DHT22;11385;50.822;4.324;2023-02-28T04:27:56;2.00;99.90
22436;DHT22;11385;50.822;4.324;2023-02-28T04:30:23;2.00;99.90
22436;DHT22;11385;50.822;4.324;2023-02-28T04:32:49;2.00;99.90
22436;DHT22;11385;50.822;4.324;2023-02-28T04:35:16;2.00;99.90
22436;DHT22;11385;50.822;4.324;2023-02-28T04:37:42;1.90;99.90
22436;DHT22;11385;50.822;4.324;2023-02-28T04:40:10;1.90;99.90
22436;DHT22;11385;50.822;4.324;2023-02-28T04:42:36;2.00;99.90
22436;DHT22;11385;50.822;4.324;2023-02-28T04:45:04;2.00;99.90
22436;DHT22;11385;50.822;4.324;2023-02-28T04:47:31;1.90;99.90
22436;DHT22;11385;50.822;4.324;2023-02-28T04:49:58;2.00;99.90
22436;DHT22;11385;50.822;4.324;2023-02-28T04:52:24;1.90;99.90
22436;DHT22;11385;50.822;4.324;2023-02-28T04:54:51;2.10;99.90
22436;DHT22;11385;50.822;4.324;2023-02-28T04:57:17;2.20;99.90
22436;DHT22;11385;50.822;4.324;2023-02-28T04:59:44;2.00;99.90
22436;DHT22;11385;50.822;4.324;2023-02-28T05:02:11;2.00;99.90
22436;DHT22;11385;50.822;4.324;2023-02-28T05:04:37;2.00;99.90
22436;DHT22;11385;50.822;4.324;2023-02-28T05:07:04;2.20;99.90
22436;DHT22;11385;50.822;4.324;2023-02-28T05:09:30;2.10;99.90
22436;DHT22;11385;50.822;4.324;2023-02-28T05:11:58;1.90;99.90
22436;DHT22;11385;50.822;4.324;2023-02-28T05:14:25;1.80;99.90
22436;DHT22;11385;50.822;4.324;2023-02-28T05:16:53;1.80;99.90
22436;DHT22;11385;50.822;4.324;2023-02-28T05:19:20;1.90;99.90
22436;DHT22;11385;50.822;4.324;2023-02-28T05:21:52;2.10;99.90
22436;DHT22;11385;50.822;4.324;2023-02-28T05:24:19;2.30;99.90
22436;DHT22;11385;50.822;4.324;2023-02-28T05:26:48;2.40;99.90
22436;DHT22;11385;50.822;4.324;2023-02-28T05:29:15;2.40;99.90
22436;DHT22;11385;50.822;4.324;2023-02-28T05:31:42;2.30;99.90
22436;DHT22;11385;50.822;4.324;2023-02-28T05:34:09;2.30;99.90
22436;DHT22;11385;50.822;4.324;2023-02-28T05:36:38;2.20;99.90
22436;DHT22;11385;50.822;4.324;2023-02-28T05:39:06;2.50;99.90
22436;DHT22;11385;50.822;4.324;2023-02-28T05:41:35;2.60;99.90
22436;DHT22;11385;50.822;4.324;2023-02-28T05:44:02;2.60;99.90
22436;DHT22;11385;50.822;4.324;2023-02-28T05:46:29;2.60;99.90
22436;DHT22;11385;50.822;4.324;2023-02-28T05:48:55;2.40;99.90
22436;DHT22;11385;50.822;4.324;2023-02-28T05:51:23;2.30;99.90
22436;DHT22;11385;50.822;4.324;2023-02-28T05:53:50;2.50;99.90
22436;DHT22;11385;50.822;4.324;2023-02-28T05:56:16;2.50;99.90
22436;DHT22;11385;50.822;4.324;2023-02-28T05:58:43;2.40;99.90
22436;DHT22;11385;50.822;4.324;2023-02-28T06:01:21;2.30;99.90
22436;DHT22;11385;50.822;4.324;2023-02-28T06:03:48;2.40;99.90
22436;DHT22;11385;50.822;4.324;2023-02-28T06:06:15;2.50;99.90
22436;DHT22;11385;50.822;4.324;2023-02-28T06:08:42;2.60;99.90
22436;DHT22;11385;50.822;4.324;2023-02-28T06:11:10;2.50;99.90
22436;DHT22;11385;50.822;4.324;2023-02-28T06:13:37;2.50;99.90
22436;DHT22;11385;50.822;4.324;2023-02-28T06:16:03;2.50;99.90
22436;DHT22;11385;50.822;4.324;2023-02-28T06:18:30;2.60;99.90
22436;DHT22;11385;50.822;4.324;2023-02-28T06:20:57;2.80;99.90
22436;DHT22;11385;50.822;4.324;2023-02-28T06:23:24;2.80;99.90
22436;DHT22;11385;50.822;4.324;2023-02-28T06:25:50;2.70;99.90
22436;DHT22;11385;50.822;4.324;2023-02-28T06:28:19;2.60;99.90
22436;DHT22;11385;50.822;4.324;2023-02-28T06:30:46;2.60;99.90
22436;DHT22;11385;50.822;4.324;2023-02-28T06:33:12;2.60;99.90
22436;DHT22;11385;50.822;4.324;2023-02-28T06:35:39;2.70;99.90
22436;DHT22;11385;50.822;4.324;2023-02-28T06:38:06;2.70;99.90
22436;DHT22;11385;50.822;4.324;2023-02-28T06:40:32;2.80;99.90
22436;DHT22;11385;50.822;4.324;2023-02-28T06:43:01;2.70;99.90
22436;DHT22;11385;50.822;4.324;2023-02-28T06:45:28;2.70;99.90
22436;DHT22;11385;50.822;4.324;2023-02-28T06:47:55;2.70;99.90
22436;DHT22;11385;50.822;4.324;2023-02-28T06:50:22;2.70;99.90
22436;DHT22;11385;50.822;4.324;2023-02-28T06:52:48;2.80;99.90
22436;DHT22;11385;50.822;4.324;2023-02-28T06:55:17;2.90;99.90
22436;DHT22;11385;50.822;4.324;2023-02-28T06:57:45;2.90;99.90
22436;DHT22;11385;50.822;4.324;2023-02-28T07:00:12;2.90;99.90
22436;DHT22;11385;50.822;4.324;2023-02-28T07:02:39;2.70;99.90
22436;DHT22;11385;50.822;4.324;2023-02-28T07:05:06;2.90;99.90
22436;DHT22;11385;50.822;4.324;2023-02-28T07:07:33;2.90;99.90
22436;DHT22;11385;50.822;4.324;2023-02-28T07:10:02;3.00;99.90
22436;DHT22;11385;50.822;4.324;2023-02-28T07:12:29;3.00;99.90
22436;DHT22;11385;50.822;4.324;2023-02-28T07:14:55;3.00;99.90
22436;DHT22;11385;50.822;4.324;2023-02-28T07:17:22;3.10;99.90
22436;DHT22;11385;50.822;4.324;2023-02-28T07:19:49;3.10;99.90
22436;DHT22;11385;50.822;4.324;2023-02-28T07:22:16;3.10;99.90
22436;DHT22;11385;50.822;4.324;2023-02-28T07:24:42;3.10;99.90
22436;DHT22;11385;50.822;4.324;2023-02-28T07:27:09;3.20;99.90
22436;DHT22;11385;50.822;4.324;2023-02-28T07:29:36;3.20;99.90
22436;DHT22;11385;50.822;4.324;2023-02-28T07:32:03;3.30;99.90
22436;DHT22;11385;50.822;4.324;2023-02-28T07:34:30;3.40;99.90
22436;DHT22;11385;50.822;4.324;2023-02-28T07:36:56;3.20;99.90
22436;DHT22;11385;50.822;4.324;2023-02-28T07:39:23;3.30;99.90
22436;DHT22;11385;50.822;4.324;2023-02-28T07:41:49;3.40;99.90
22436;DHT22;11385;50.822;4.324;2023-02-28T07:44:16;3.30;99.90
22436;DHT22;11385;50.822;4.324;2023-02-28T07:46:43;3.60;99.90
22436;DHT22;11385;50.822;4.324;2023-02-28T07:49:09;3.70;99.90
22436;DHT22;11385;50.822;4.324;2023-02-28T07:51:36;3.70;99.90
22436;DHT22;11385;50.822;4.324;2023-02-28T07:54:03;3.60;99.90
22436;DHT22;11385;50.822;4.324;2023-02-28T07:56:29;3.60;99.90
22436;DHT22;11385;50.822;4.324;2023-02-28T07:58:56;3.60;99.90
22436;DHT22;11385;50.822;4.324;2023-02-28T08:01:23;3.40;99.90
22436;DHT22;11385;50.822;4.324;2023-02-28T08:03:50;3.50;99.90
22436;DHT22;11385;50.822;4.324;2023-02-28T08:06:19;3.60;99.90
22436;DHT22;11385;50.822;4.324;2023-02-28T08:08:47;3.60;99.90
22436;DHT22;11385;50.822;4.324;2023-02-28T08:11:15;3.50;99.90
22436;DHT22;11385;50.822;4.324;2023-02-28T08:13:42;3.30;99.90
22436;DHT22;11385;50.822;4.324;2023-02-28T08:16:10;3.50;99.90
22436;DHT22;11385;50.822;4.324;2023-02-28T08:18:40;3.70;99.90
22436;DHT22;11385;50.822;4.324;2023-02-28T08:21:10;3.60;99.90
22436;DHT22;11385;50.822;4.324;2023-02-28T08:23:37;3.70;99.90
22436;DHT22;11385;50.822;4.324;2023-02-28T08:26:04;3.70;99.90
22436;DHT22;11385;50.822;4.324;2023-02-28T08:28:31;3.70;99.90
22436;DHT22;11385;50.822;4.324;2023-02-28T08:30:58;3.80;99.90
22436;DHT22;11385;50.822;4.324;2023-02-28T08:33:26;3.70;99.90
22436;DHT22;11385;50.822;4.324;2023-02-28T08:35:54;3.80;99.90
22436;DHT22;11385;50.822;4.324;2023-02-28T08:38:22;4.00;99.90
22436;DHT22;11385;50.822;4.324;2023-02-28T08:40:57;4.10;99.90
22436;DHT22;11385;50.822;4.324;2023-02-28T08:43:24;4.20;99.90
22436;DHT22;11385;50.822;4.324;2023-02-28T08:45:52;4.20;99.90
22436;DHT22;11385;50.822;4.324;2023-02-28T08:48:19;4.30;99.90
22436;DHT22;11385;50.822;4.324;2023-02-28T08:50:57;4.30;99.90
22436;DHT22;11385;50.822;4.324;2023-02-28T08:53:24;4.20;99.90
22436;DHT22;11385;50.822;4.324;2023-02-28T08:55:59;3.90;99.90
22436;DHT22;11385;50.822;4.324;2023-02-28T08:58:26;3.90;99.90
22436;DHT22;11385;50.822;4.324;2023-02-28T09:00:53;4.00;99.90
22436;DHT22;11385;50.822;4.324;2023-02-28T09:03:21;3.80;99.90
22436;DHT22;11385;50.822;4.324;2023-02-28T09:05:53;3.80;99.90
22436;DHT22;11385;50.822;4.324;2023-02-28T09:08:21;3.90;99.90
22436;DHT22;11385;50.822;4.324;2023-02-28T09:10:48;4.00;99.90
22436;DHT22;11385;50.822;4.324;2023-02-28T09:13:15;3.90;99.90
22436;DHT22;11385;50.822;4.324;2023-02-28T09:15:42;3.80;99.90
22436;DHT22;11385;50.822;4.324;2023-02-28T09:18:08;3.90;99.90
22436;DHT22;11385;50.822;4.324;2023-02-28T09:20:38;3.80;99.90
22436;DHT22;11385;50.822;4.324;2023-02-28T09:23:06;3.90;99.90
22436;DHT22;11385;50.822;4.324;2023-02-28T09:25:33;3.90;99.90
22436;DHT22;11385;50.822;4.324;2023-02-28T09:28:01;3.80;99.90
22436;DHT22;11385;50.822;4.324;2023-02-28T09:30:28;3.70;99.90
22436;DHT22;11385;50.822;4.324;2023-02-28T09:32:55;3.90;99.90
22436;DHT22;11385;50.822;4.324;2023-02-28T09:35:23;3.90;99.90
22436;DHT22;11385;50.822;4.324;2023-02-28T09:37:52;3.90;99.90
22436;DHT22;11385;50.822;4.324;2023-02-28T09:40:20;4.10;99.90
22436;DHT22;11385;50.822;4.324;2023-02-28T09:42:52;4.10;99.90
22436;DHT22;11385;50.822;4.324;2023-02-28T09:45:27;4.10;99.90
22436;DHT22;11385;50.822;4.324;2023-02-28T09:48:03;4.30;99.90
22436;DHT22;11385;50.822;4.324;2023-02-28T09:50:45;4.30;99.90
22436;DHT22;11385;50.822;4.324;2023-02-28T09:53:39;4.40;99.90
22436;DHT22;11385;50.822;4.324;2023-02-28T09:56:26;4.50;99.90
22436;DHT22;11385;50.822;4.324;2023-02-28T09:59:01;4.60;99.90
22436;DHT22;11385;50.822;4.324;2023-02-28T10:04:44;4.50;99.90
22436;DHT22;11385;50.822;4.324;2023-02-28T10:07:18;4.40;99.90
22436;DHT22;11385;50.822;4.324;2023-02-28T10:09:50;4.40;99.90
22436;DHT22;11385;50.822;4.324;2023-02-28T10:12:17;4.30;99.90
22436;DHT22;11385;50.822;4.324;2023-02-28T10:14:49;4.40;99.90
22436;DHT22;11385;50.822;4.324;2023-02-28T10:17:19;4.60;99.90
22436;DHT22;11385;50.822;4.324;2023-02-28T10:19:54;4.80;99.90
22436;DHT22;11385;50.822;4.324;2023-02-28T10:22:25;4.60;99.90
22436;DHT22;11385;50.822;4.324;2023-02-28T10:24:55;4.60;99.90
22436;DHT22;11385;50.822;4.324;2023-02-28T10:27:29;4.60;99.90
22436;DHT22;11385;50.822;4.324;2023-02-28T10:30:00;4.70;99.90
22436;DHT22;11385;50.822;4.324;2023-02-28T10:32:29;4.90;99.90
22436;DHT22;11385;50.822;4.324;2023-02-28T10:35:00;5.00;99.90
22436;DHT22;11385;50.822;4.324;2023-02-28T10:37:27;5.00;99.90
22436;DHT22;11385;50.822;4.324;2023-02-28T10:39:54;4.70;99.90
22436;DHT22;11385;50.822;4.324;2023-02-28T10:42:27;4.80;99.90
22436;DHT22;11385;50.822;4.324;2023-02-28T10:45:04;4.90;99.90
22436;DHT22;11385;50.822;4.324;2023-02-28T10:47:34;5.00;99.90
22436;DHT22;11385;50.822;4.324;2023-02-28T10:50:03;5.20;99.90
22436;DHT22;11385;50.822;4.324;2023-02-28T10:52:36;5.20;99.90
22436;DHT22;11385;50.822;4.324;2023-02-28T10:55:13;5.20;99.90
22436;DHT22;11385;50.822;4.324;2023-02-28T10:57:40;5.30;99.90
22436;DHT22;11385;50.822;4.324;2023-02-28T11:00:19;5.20;99.90
22436;DHT22;11385;50.822;4.324;2023-02-28T11:02:47;5.20;99.90
22436;DHT22;11385;50.822;4.324;2023-02-28T11:05:29;5.30;99.90
22436;DHT22;11385;50.822;4.324;2023-02-28T11:08:13;5.40;99.90
22436;DHT22;11385;50.822;4.324;2023-02-28T11:10:48;5.40;99.90
22436;DHT22;11385;50.822;4.324;2023-02-28T11:13:20;5.40;99.90
22436;DHT22;11385;50.822;4.324;2023-02-28T11:15:54;5.60;99.90
22436;DHT22;11385;50.822;4.324;2023-02-28T11:18:26;5.60;99.90
22436;DHT22;11385;50.822;4.324;2023-02-28T11:20:52;5.80;99.90
22436;DHT22;11385;50.822;4.324;2023-02-28T11:23:20;5.70;99.90
22436;DHT22;11385;50.822;4.324;2023-02-28T11:25:51;5.70;99.90
22436;DHT22;11385;50.822;4.324;2023-02-28T11:28:30;5.80;99.90
22436;DHT22;11385;50.822;4.324;2023-02-28T11:31:09;5.80;99.90
22436;DHT22;11385;50.822;4.324;2023-02-28T11:33:54;5.70;99.90
22436;DHT22;11385;50.822;4.324;2023-02-28T11:36:26;5.60;99.90
22436;DHT22;11385;50.822;4.324;2023-02-28T11:38:56;5.50;99.90
22436;DHT22;11385;50.822;4.324;2023-02-28T11:41:51;5.50;99.90
22436;DHT22;11385;50.822;4.324;2023-02-28T11:44:34;5.60;99.90
22436;DHT22;11385;50.822;4.324;2023-02-28T11:47:11;5.60;99.90
22436;DHT22;11385;50.822;4.324;2023-02-28T11:49:53;5.80;99.90
22436;DHT22;11385;50.822;4.324;2023-02-28T11:52:34;5.90;99.90
22436;DHT22;11385;50.822;4.324;2023-02-28T11:55:12;6.00;99.90
22436;DHT22;11385;50.822;4.324;2023-02-28T11:57:56;6.10;99.90
22436;DHT22;11385;50.822;4.324;2023-02-28T12:00:37;5.90;99.90
22436;DHT22;11385;50.822;4.324;2023-02-28T12:03:13;5.80;99.90
22436;DHT22;11385;50.822;4.324;2023-02-28T12:05:44;5.90;99.90
22436;DHT22;11385;50.822;4.324;2023-02-28T12:08:42;6.20;99.90
22436;DHT22;11385;50.822;4.324;2023-02-28T12:11:19;6.10;99.90
22436;DHT22;11385;50.822;4.324;2023-02-28T12:13:48;6.20;99.90
22436;DHT22;11385;50.822;4.324;2023-02-28T12:16:18;6.10;99.90
22436;DHT22;11385;50.822;4.324;2023-02-28T12:18:53;6.10;99.90
22436;DHT22;11385;50.822;4.324;2023-02-28T12:21:24;6.30;99.90
22436;DHT22;11385;50.822;4.324;2023-02-28T12:23:56;6.40;99.90
22436;DHT22;11385;50.822;4.324;2023-02-28T12:26:31;6.50;99.90
22436;DHT22;11385;50.822;4.324;2023-02-28T12:29:02;6.40;99.90
22436;DHT22;11385;50.822;4.324;2023-02-28T12:31:32;6.30;99.90
22436;DHT22;11385;50.822;4.324;2023-02-28T12:34:04;6.30;99.90
22436;DHT22;11385;50.822;4.324;2023-02-28T12:36:33;6.60;99.90
22436;DHT22;11385;50.822;4.324;2023-02-28T12:39:10;6.60;99.90
22436;DHT22;11385;50.822;4.324;2023-02-28T12:41:46;6.60;99.90
22436;DHT22;11385;50.822;4.324;2023-02-28T12:44:19;6.40;99.90
22436;DHT22;11385;50.822;4.324;2023-02-28T12:46:49;6.50;99.90
22436;DHT22;11385;50.822;4.324;2023-02-28T12:49:23;6.50;99.90
22436;DHT22;11385;50.822;4.324;2023-02-28T12:51:50;6.50;99.90
22436;DHT22;11385;50.822;4.324;2023-02-28T12:54:35;6.50;99.90
22436;DHT22;11385;50.822;4.324;2023-02-28T12:57:15;6.50;99.90
22436;DHT22;11385;50.822;4.324;2023-02-28T12:59:51;6.50;99.90
22436;DHT22;11385;50.822;4.324;2023-02-28T13:08:20;6.40;99.90
22436;DHT22;11385;50.822;4.324;2023-02-28T13:10:47;6.50;99.90
22436;DHT22;11385;50.822;4.324;2023-02-28T13:13:21;6.70;99.90
22436;DHT22;11385;50.822;4.324;2023-02-28T13:15:58;6.50;99.90
22436;DHT22;11385;50.822;4.324;2023-02-28T13:18:31;6.40;99.90
22436;DHT22;11385;50.822;4.324;2023-02-28T13:21:00;6.60;99.90
22436;DHT22;11385;50.822;4.324;2023-02-28T13:23:56;6.60;99.90
22436;DHT22;11385;50.822;4.324;2023-02-28T13:26:09;6.60;99.90
22436;DHT22;11385;50.822;4.324;2023-02-28T13:29:20;6.60;99.90
22436;DHT22;11385;50.822;4.324;2023-02-28T13:31:32;6.60;99.90
22436;DHT22;11385;50.822;4.324;2023-02-28T13:34:05;6.50;99.90
22436;DHT22;11385;50.822;4.324;2023-02-28T13:36:33;6.60;99.90
22436;DHT22;11385;50.822;4.324;2023-02-28T13:39:02;6.70;99.90
22436;DHT22;11385;50.822;4.324;2023-02-28T13:41:46;6.90;99.90
22436;DHT22;11385;50.822;4.324;2023-02-28T13:44:20;7.00;99.90
22436;DHT22;11385;50.822;4.324;2023-02-28T13:47:19;7.10;99.90
22436;DHT22;11385;50.822;4.324;2023-02-28T13:49:42;7.20;99.90
22436;DHT22;11385;50.822;4.324;2023-02-28T13:52:20;7.10;99.90
22436;DHT22;11385;50.822;4.324;2023-02-28T13:55:19;6.90;99.90
22436;DHT22;11385;50.822;4.324;2023-02-28T13:58:09;6.80;99.90
22436;DHT22;11385;50.822;4.324;2023-02-28T14:06:10;6.70;99.90
22436;DHT22;11385;50.822;4.324;2023-02-28T14:08:37;6.80;99.90
22436;DHT22;11385;50.822;4.324;2023-02-28T14:11:09;6.80;99.90
22436;DHT22;11385;50.822;4.324;2023-02-28T14:13:40;6.70;99.90
22436;DHT22;11385;50.822;4.324;2023-02-28T14:16:11;6.80;99.90
22436;DHT22;11385;50.822;4.324;2023-02-28T14:18:47;6.90;99.90
22436;DHT22;11385;50.822;4.324;2023-02-28T14:21:31;6.80;99.90
22436;DHT22;11385;50.822;4.324;2023-02-28T14:27:17;6.90;99.90
22436;DHT22;11385;50.822;4.324;2023-02-28T14:29:59;7.00;99.90
22436;DHT22;11385;50.822;4.324;2023-02-28T14:32:45;7.00;99.90
22436;DHT22;11385;50.822;4.324;2023-02-28T14:35:22;7.00;99.90
22436;DHT22;11385;50.822;4.324;2023-02-28T14:37:47;6.80;99.90
22436;DHT22;11385;50.822;4.324;2023-02-28T14:40:17;6.80;99.90
22436;DHT22;11385;50.822;4.324;2023-02-28T14:42:58;6.90;99.90
22436;DHT22;11385;50.822;4.324;2023-02-28T14:45:29;6.90;99.90
22436;DHT22;11385;50.822;4.324;2023-02-28T14:47:56;6.90;99.90
22436;DHT22;11385;50.822;4.324;2023-02-28T14:50:29;7.00;99.90
22436;DHT22;11385;50.822;4.324;2023-02-28T14:52:57;7.10;99.90
22436;DHT22;11385;50.822;4.324;2023-02-28T14:55:28;7.20;99.90
22436;DHT22;11385;50.822;4.324;2023-02-28T14:58:01;7.20;99.90
22436;DHT22;11385;50.822;4.324;2023-02-28T15:00:34;7.20;99.90
22436;DHT22;11385;50.822;4.324;2023-02-28T15:03:20;7.10;99.90
22436;DHT22;11385;50.822;4.324;2023-02-28T15:05:54;7.00;99.90
22436;DHT22;11385;50.822;4.324;2023-02-28T15:08:21;7.20;99.90
22436;DHT22;11385;50.822;4.324;2023-02-28T15:10:57;7.00;99.90
22436;DHT22;11385;50.822;4.324;2023-02-28T15:13:31;6.90;99.90
22436;DHT22;11385;50.822;4.324;2023-02-28T15:15:57;7.00;99.90
22436;DHT22;11385;50.822;4.324;2023-02-28T15:21:24;7.10;99.90
22436;DHT22;11385;50.822;4.324;2023-02-28T15:26:53;7.10;99.90
22436;DHT22;11385;50.822;4.324;2023-02-28T15:29:23;7.10;99.90
22436;DHT22;11385;50.822;4.324;2023-02-28T15:31:57;6.90;99.90
22436;DHT22;11385;50.822;4.324;2023-02-28T15:34:36;6.90;99.90
22436;DHT22;11385;50.822;4.324;2023-02-28T15:39:42;7.10;99.90
22436;DHT22;11385;50.822;4.324;2023-02-28T15:42:11;7.20;99.90
22436;DHT22;11385;50.822;4.324;2023-02-28T15:44:38;7.10;99.90
22436;DHT22;11385;50.822;4.324;2023-02-28T15:47:14;7.10;99.90
22436;DHT22;11385;50.822;4.324;2023-02-28T15:50:12;7.00;99.90
22436;DHT22;11385;50.822;4.324;2023-02-28T15:52:33;7.00;99.90
22436;DHT22;11385;50.822;4.324;2023-02-28T15:54:58;7.00;99.90
22436;DHT22;11385;50.822;4.324;2023-02-28T15:57:28;6.90;99.90
22436;DHT22;11385;50.822;4.324;2023-02-28T15:59:57;6.70;99.90
22436;DHT22;11385;50.822;4.324;2023-02-28T16:02:32;6.60;99.90
22436;DHT22;11385;50.822;4.324;2023-02-28T16:05:16;6.80;99.90
22436;DHT22;11385;50.822;4.324;2023-02-28T16:07:30;6.70;99.90
22436;DHT22;11385;50.822;4.324;2023-02-28T16:09:58;6.60;99.90
22436;DHT22;11385;50.822;4.324;2023-02-28T16:12:28;6.60;99.90
22436;DHT22;11385;50.822;4.324;2023-02-28T16:14:59;6.50;99.90
22436;DHT22;11385;50.822;4.324;2023-02-28T16:17:31;6.50;99.90
22436;DHT22;11385;50.822;4.324;2023-02-28T16:19:57;6.30;99.90
22436;DHT22;11385;50.822;4.324;2023-02-28T16:22:24;6.40;99.90
22436;DHT22;11385;50.822;4.324;2023-02-28T16:24:51;6.50;99.90
22436;DHT22;11385;50.822;4.324;2023-02-28T16:27:21;6.40;99.90
22436;DHT22;11385;50.822;4.324;2023-02-28T16:29:49;6.40;99.90
22436;DHT22;11385;50.822;4.324;2023-02-28T16:32:16;6.50;99.90
22436;DHT22;11385;50.822;4.324;2023-02-28T16:34:44;6.50;99.90
22436;DHT22;11385;50.822;4.324;2023-02-28T16:37:13;6.50;99.90
22436;DHT22;11385;50.822;4.324;2023-02-28T16:39:41;6.30;99.90
22436;DHT22;11385;50.822;4.324;2023-02-28T16:42:15;6.20;99.90
22436;DHT22;11385;50.822;4.324;2023-02-28T16:44:52;6.10;99.90